sensor_id;sensor_type;location;lat;lon;timestamp;pressure;altitude;pressure_sealevel;temperature;humidity
54172;BME280;40076;52.354;4.970;2022-09-21T00:01:51;102705.31;;;12.86;71.94
54172;BME280;40076;52.354;4.970;2022-09-21T00:04:16;102711.00;;;12.85;71.99
54172;BME280;40076;52.354;4.970;2022-09-21T00:06:41;102704.25;;;12.82;72.11
54172;BME280;40076;52.354;4.970;2022-09-21T00:09:06;102712.16;;;12.79;72.09
54172;BME280;40076;52.354;4.970;2022-09-21T00:11:33;102719.50;;;12.78;72.14
54172;BME280;40076;52.354;4.970;2022-09-21T00:14:07;102720.06;;;12.75;72.14
54172;BME280;40076;52.354;4.970;2022-09-21T00:16:34;102712.50;;;12.72;72.12
54172;BME280;40076;52.354;4.970;2022-09-21T00:19:00;102717.41;;;12.70;72.23
54172;BME280;40076;52.354;4.970;2022-09-21T00:21:25;102713.34;;;12.67;72.28
54172;BME280;40076;52.354;4.970;2022-09-21T00:23:51;102716.66;;;12.64;72.37
54172;BME280;40076;52.354;4.970;2022-09-21T00:26:20;102710.44;;;12.64;72.48
54172;BME280;40076;52.354;4.970;2022-09-21T00:28:46;102719.94;;;12.61;72.40
54172;BME280;40076;52.354;4.970;2022-09-21T00:31:14;102717.50;;;12.60;72.43
54172;BME280;40076;52.354;4.970;2022-09-21T00:33:40;102712.38;;;12.58;72.51
54172;BME280;40076;52.354;4.970;2022-09-21T00:36:07;102705.63;;;12.56;72.38
54172;BME280;40076;52.354;4.970;2022-09-21T00:38:33;102721.91;;;12.56;72.47
54172;BME280;40076;52.354;4.970;2022-09-21T00:40:58;102713.22;;;12.54;72.56
54172;BME280;40076;52.354;4.970;2022-09-21T00:43:24;102710.78;;;12.52;72.61
54172;BME280;40076;52.354;4.970;2022-09-21T00:45:49;102713.50;;;12.52;72.63
54172;BME280;40076;52.354;4.970;2022-09-21T00:48:17;102712.19;;;12.50;72.61
54172;BME280;40076;52.354;4.970;2022-09-21T00:50:44;102712.75;;;12.47;72.63
54172;BME280;40076;52.354;4.970;2022-09-21T00:53:11;102721.97;;;12.46;72.65
54172;BME280;40076;52.354;4.970;2022-09-21T00:55:38;102712.81;;;12.42;72.71
54172;BME280;40076;52.354;4.970;2022-09-21T00:58:07;102710.94;;;12.37;72.74
54172;BME280;40076;52.354;4.970;2022-09-21T01:00:36;102707.72;;;12.35;72.75
54172;BME280;40076;52.354;4.970;2022-09-21T01:03:04;102713.72;;;12.32;72.75
54172;BME280;40076;52.354;4.970;2022-09-21T01:05:32;102713.97;;;12.30;72.82
54172;BME280;40076;52.354;4.970;2022-09-21T01:07:58;102709.44;;;12.26;72.85
54172;BME280;40076;52.354;4.970;2022-09-21T01:10:26;102709.97;;;12.23;72.87
54172;BME280;40076;52.354;4.970;2022-09-21T01:13:03;102714.09;;;12.20;72.85
54172;BME280;40076;52.354;4.970;2022-09-21T01:21:14;102718.72;;;12.15;73.08
54172;BME280;40076;52.354;4.970;2022-09-21T01:31:51;102721.53;;;12.05;72.98
54172;BME280;40076;52.354;4.970;2022-09-21T01:36:48;102722.91;;;12.02;73.33
54172;BME280;40076;52.354;4.970;2022-09-21T01:39:16;102718.56;;;12.01;73.42
54172;BME280;40076;52.354;4.970;2022-09-21T01:41:42;102719.38;;;12.02;73.45
54172;BME280;40076;52.354;4.970;2022-09-21T01:44:11;102724.53;;;12.03;73.56
54172;BME280;40076;52.354;4.970;2022-09-21T01:46:37;102718.00;;;12.04;73.62
54172;BME280;40076;52.354;4.970;2022-09-21T01:49:14;102721.53;;;12.05;73.66
54172;BME280;40076;52.354;4.970;2022-09-21T01:51:43;102719.91;;;12.04;73.69
54172;BME280;40076;52.354;4.970;2022-09-21T01:54:14;102713.69;;;12.03;73.70
54172;BME280;40076;52.354;4.970;2022-09-21T01:56:45;102719.91;;;12.04;73.64
54172;BME280;40076;52.354;4.970;2022-09-21T02:01:40;102716.91;;;12.05;73.87
54172;BME280;40076;52.354;4.970;2022-09-21T02:04:08;102721.22;;;12.06;73.80
54172;BME280;40076;52.354;4.970;2022-09-21T02:06:34;102716.13;;;12.05;73.77
54172;BME280;40076;52.354;4.970;2022-09-21T02:09:02;102722.63;;;12.04;73.82
54172;BME280;40076;52.354;4.970;2022-09-21T02:11:27;102721.53;;;12.05;73.85
54172;BME280;40076;52.354;4.970;2022-09-21T02:13:52;102721.53;;;12.05;73.95
54172;BME280;40076;52.354;4.970;2022-09-21T02:16:29;102725.06;;;12.05;73.97
54172;BME280;40076;52.354;4.970;2022-09-21T02:19:02;102718.81;;;12.05;73.91
54172;BME280;40076;52.354;4.970;2022-09-21T02:24:45;102728.53;;;12.06;74.00
54172;BME280;40076;52.354;4.970;2022-09-21T02:29:34;102723.94;;;12.06;74.13
54172;BME280;40076;52.354;4.970;2022-09-21T02:32:05;102725.56;;;12.07;74.06
54172;BME280;40076;52.354;4.970;2022-09-21T02:34:33;102720.94;;;12.08;74.14
54172;BME280;40076;52.354;4.970;2022-09-21T02:39:29;102717.44;;;12.07;74.25
54172;BME280;40076;52.354;4.970;2022-09-21T02:42:02;102718.25;;;12.08;74.17
54172;BME280;40076;52.354;4.970;2022-09-21T02:44:39;102715.53;;;12.08;74.23
54172;BME280;40076;52.354;4.970;2022-09-21T02:47:09;102716.34;;;12.08;74.29
54172;BME280;40076;52.354;4.970;2022-09-21T02:49:38;102716.34;;;12.08;74.26
54172;BME280;40076;52.354;4.970;2022-09-21T02:52:08;102707.69;;;12.06;74.28
54172;BME280;40076;52.354;4.970;2022-09-21T02:54:34;102704.97;;;12.06;74.39
54172;BME280;40076;52.354;4.970;2022-09-21T02:57:01;102707.69;;;12.06;74.53
54172;BME280;40076;52.354;4.970;2022-09-21T02:59:26;102709.56;;;12.06;74.49
54172;BME280;40076;52.354;4.970;2022-09-21T03:01:52;102708.50;;;12.07;74.52
54172;BME280;40076;52.354;4.970;2022-09-21T03:04:19;102713.09;;;12.06;74.55
54172;BME280;40076;52.354;4.970;2022-09-21T03:06:45;102706.09;;;12.05;74.58
54172;BME280;40076;52.354;4.970;2022-09-21T03:09:10;102707.97;;;12.05;74.56
54172;BME280;40076;52.354;4.970;2022-09-21T03:11:35;102710.69;;;12.05;74.60
54172;BME280;40076;52.354;4.970;2022-09-21T03:14:01;102710.69;;;12.05;74.70
54172;BME280;40076;52.354;4.970;2022-09-21T03:16:29;102703.94;;;12.02;74.70
54172;BME280;40076;52.354;4.970;2022-09-21T03:18:54;102708.53;;;12.02;74.75
54172;BME280;40076;52.354;4.970;2022-09-21T03:21:20;102711.25;;;12.02;74.76
54172;BME280;40076;52.354;4.970;2022-09-21T03:23:46;102712.34;;;12.01;74.78
54172;BME280;40076;52.354;4.970;2022-09-21T03:26:11;102708.28;;;11.98;74.70
54172;BME280;40076;52.354;4.970;2022-09-21T03:28:36;102712.59;;;11.99;74.77
54172;BME280;40076;52.354;4.970;2022-09-21T03:31:01;102708.59;;;11.96;74.74
54172;BME280;40076;52.354;4.970;2022-09-21T03:33:27;102712.38;;;11.95;74.80
54172;BME280;40076;52.354;4.970;2022-09-21T03:35:52;102719.97;;;11.93;74.82
54172;BME280;40076;52.354;4.970;2022-09-21T03:38:18;102717.53;;;11.92;74.75
54172;BME280;40076;52.354;4.970;2022-09-21T03:40:45;102718.94;;;11.89;74.80
54172;BME280;40076;52.354;4.970;2022-09-21T03:43:11;102719.22;;;11.88;74.88
54172;BME280;40076;52.354;4.970;2022-09-21T03:45:36;102720.56;;;11.85;74.80
54172;BME280;40076;52.354;4.970;2022-09-21T03:48:05;102725.19;;;11.85;74.80
54172;BME280;40076;52.354;4.970;2022-09-21T03:50:30;102723.03;;;11.82;74.83
54172;BME280;40076;52.354;4.970;2022-09-21T03:52:55;102722.50;;;11.80;74.90
54172;BME280;40076;52.354;4.970;2022-09-21T03:55:20;102716.56;;;11.78;74.84
54172;BME280;40076;52.354;4.970;2022-09-21T03:57:46;102728.47;;;11.77;74.88
54172;BME280;40076;52.354;4.970;2022-09-21T04:00:12;102723.34;;;11.75;74.97
54172;BME280;40076;52.354;4.970;2022-09-21T04:02:38;102726.31;;;11.74;75.00
54172;BME280;40076;52.354;4.970;2022-09-21T04:05:04;102725.78;;;11.72;74.99
54172;BME280;40076;52.354;4.970;2022-09-21T04:07:31;102727.69;;;11.71;75.02
54172;BME280;40076;52.354;4.970;2022-09-21T04:10:00;102713.59;;;11.69;74.96
54172;BME280;40076;52.354;4.970;2022-09-21T04:12:25;102723.91;;;11.67;75.00
54172;BME280;40076;52.354;4.970;2022-09-21T04:14:51;102720.69;;;11.65;74.94
54172;BME280;40076;52.354;4.970;2022-09-21T04:17:16;102713.91;;;11.63;74.89
54172;BME280;40076;52.354;4.970;2022-09-21T04:19:41;102725.03;;;11.61;74.95
54172;BME280;40076;52.354;4.970;2022-09-21T04:22:08;102719.09;;;11.59;74.97
54172;BME280;40076;52.354;4.970;2022-09-21T04:24:36;102717.75;;;11.56;74.93
54172;BME280;40076;52.354;4.970;2022-09-21T04:27:02;102727.22;;;11.54;74.95
54172;BME280;40076;52.354;4.970;2022-09-21T04:29:27;102722.09;;;11.52;75.00
54172;BME280;40076;52.354;4.970;2022-09-21T04:31:52;102723.47;;;11.50;75.09
54172;BME280;40076;52.354;4.970;2022-09-21T04:34:17;102728.06;;;11.49;75.02
54172;BME280;40076;52.354;4.970;2022-09-21T04:36:43;102722.94;;;11.48;75.02
54172;BME280;40076;52.354;4.970;2022-09-21T04:39:08;102718.88;;;11.45;75.10
54172;BME280;40076;52.354;4.970;2022-09-21T04:41:33;102717.25;;;11.44;74.98
54172;BME280;40076;52.354;4.970;2022-09-21T04:43:58;102712.94;;;11.43;75.13
54172;BME280;40076;52.354;4.970;2022-09-21T04:46:24;102721.34;;;11.42;74.98
54172;BME280;40076;52.354;4.970;2022-09-21T04:48:49;102720.81;;;11.40;75.00
54172;BME280;40076;52.354;4.970;2022-09-21T04:51:15;102722.97;;;11.38;75.11
54172;BME280;40076;52.354;4.970;2022-09-21T04:53:41;102724.88;;;11.37;75.14
54172;BME280;40076;52.354;4.970;2022-09-21T04:56:06;102718.41;;;11.33;75.13
54172;BME280;40076;52.354;4.970;2022-09-21T04:58:32;102722.47;;;11.31;75.23
54172;BME280;40076;52.354;4.970;2022-09-21T05:00:57;102719.25;;;11.29;75.20
54172;BME280;40076;52.354;4.970;2022-09-21T05:03:23;102718.72;;;11.27;75.25
54172;BME280;40076;52.354;4.970;2022-09-21T05:05:49;102720.06;;;11.24;75.41
54172;BME280;40076;52.354;4.970;2022-09-21T05:08:15;102715.47;;;11.25;75.32
54172;BME280;40076;52.354;4.970;2022-09-21T05:10:41;102713.56;;;11.25;75.39
54172;BME280;40076;52.354;4.970;2022-09-21T05:13:07;102720.88;;;11.25;75.38
54172;BME280;40076;52.354;4.970;2022-09-21T05:15:32;102721.94;;;11.23;75.48
54172;BME280;40076;52.354;4.970;2022-09-21T05:17:57;102724.66;;;11.23;75.39
54172;BME280;40076;52.354;4.970;2022-09-21T05:20:22;102724.94;;;11.22;75.45
54172;BME280;40076;52.354;4.970;2022-09-21T05:22:48;102727.63;;;11.22;75.51
54172;BME280;40076;52.354;4.970;2022-09-21T05:25:13;102732.53;;;11.20;75.47
54172;BME280;40076;52.354;4.970;2022-09-21T05:27:38;102729.84;;;11.20;75.59
54172;BME280;40076;52.354;4.970;2022-09-21T05:30:05;102729.03;;;11.19;75.55
54172;BME280;40076;52.354;4.970;2022-09-21T05:35:11;102737.13;;;11.19;75.60
54172;BME280;40076;52.354;4.970;2022-09-21T05:40:13;102733.34;;;11.20;75.73
54172;BME280;40076;52.354;4.970;2022-09-21T05:42:39;102728.75;;;11.21;75.76
54172;BME280;40076;52.354;4.970;2022-09-21T05:45:04;102739.28;;;11.22;75.89
54172;BME280;40076;52.354;4.970;2022-09-21T05:47:44;102731.97;;;11.23;75.87
54172;BME280;40076;52.354;4.970;2022-09-21T06:00:19;102744.69;;;11.28;76.06
54172;BME280;40076;52.354;4.970;2022-09-21T06:05:28;102744.38;;;11.29;76.05
54172;BME280;40076;52.354;4.970;2022-09-21T06:07:54;102747.63;;;11.31;76.19
54172;BME280;40076;52.354;4.970;2022-09-21T06:10:19;102749.25;;;11.32;76.22
54172;BME280;40076;52.354;4.970;2022-09-21T06:12:44;102751.97;;;11.32;76.20
54172;BME280;40076;52.354;4.970;2022-09-21T06:15:10;102748.19;;;11.33;76.33
54172;BME280;40076;52.354;4.970;2022-09-21T06:17:36;102757.09;;;11.34;76.42
54172;BME280;40076;52.354;4.970;2022-09-21T06:20:01;102747.63;;;11.36;76.49
54172;BME280;40076;52.354;4.970;2022-09-21T06:22:27;102746.81;;;11.36;77.14
54172;BME280;40076;52.354;4.970;2022-09-21T06:24:52;102746.00;;;11.35;76.85
54172;BME280;40076;52.354;4.970;2022-09-21T06:27:17;102746.81;;;11.36;77.08
54172;BME280;40076;52.354;4.970;2022-09-21T06:29:42;102751.94;;;11.37;76.78
54172;BME280;40076;52.354;4.970;2022-09-21T06:32:08;102740.84;;;11.39;76.82
54172;BME280;40076;52.354;4.970;2022-09-21T06:34:33;102749.50;;;11.41;76.95
54172;BME280;40076;52.354;4.970;2022-09-21T06:36:58;102757.34;;;11.42;77.00
54172;BME280;40076;52.354;4.970;2022-09-21T06:39:23;102755.97;;;11.45;77.04
54172;BME280;40076;52.354;4.970;2022-09-21T06:41:48;102761.09;;;11.46;77.13
54172;BME280;40076;52.354;4.970;2022-09-21T06:44:15;102754.34;;;11.49;77.14
54172;BME280;40076;52.354;4.970;2022-09-21T06:46:40;102761.38;;;11.50;77.14
54172;BME280;40076;52.354;4.970;2022-09-21T06:49:06;102754.56;;;11.52;77.13
54172;BME280;40076;52.354;4.970;2022-09-21T06:51:31;102754.28;;;11.54;77.27
54172;BME280;40076;52.354;4.970;2022-09-21T06:53:56;102755.91;;;11.55;77.30
54172;BME280;40076;52.354;4.970;2022-09-21T06:56:22;102758.34;;;11.56;77.26
54172;BME280;40076;52.354;4.970;2022-09-21T06:58:48;102761.06;;;11.56;77.23
54172;BME280;40076;52.354;4.970;2022-09-21T07:01:13;102759.72;;;11.59;77.31
54172;BME280;40076;52.354;4.970;2022-09-21T07:03:39;102763.19;;;11.59;77.36
54172;BME280;40076;52.354;4.970;2022-09-21T07:06:05;102760.22;;;11.61;77.37
54172;BME280;40076;52.354;4.970;2022-09-21T07:08:30;102761.84;;;11.62;77.43
54172;BME280;40076;52.354;4.970;2022-09-21T07:10:56;102761.56;;;11.64;77.47
54172;BME280;40076;52.354;4.970;2022-09-21T07:13:22;102770.22;;;11.66;77.54
54172;BME280;40076;52.354;4.970;2022-09-21T07:15:47;102770.75;;;11.68;77.74
54172;BME280;40076;52.354;4.970;2022-09-21T07:18:13;102770.47;;;11.69;77.71
54172;BME280;40076;52.354;4.970;2022-09-21T07:20:38;102771.00;;;11.71;78.06
54172;BME280;40076;52.354;4.970;2022-09-21T07:23:08;102769.66;;;11.74;77.97
54172;BME280;40076;52.354;4.970;2022-09-21T07:25:34;102772.09;;;11.75;78.06
54172;BME280;40076;52.354;4.970;2022-09-21T07:28:00;102768.28;;;11.76;78.08
54172;BME280;40076;52.354;4.970;2022-09-21T07:30:25;102760.97;;;11.77;79.51
54172;BME280;40076;52.354;4.970;2022-09-21T07:32:51;102766.66;;;11.80;78.65
54172;BME280;40076;52.354;4.970;2022-09-21T07:35:17;102771.50;;;11.83;78.73
54172;BME280;40076;52.354;4.970;2022-09-21T07:37:43;102777.72;;;11.89;78.75
54172;BME280;40076;52.354;4.970;2022-09-21T07:40:08;102768.50;;;11.90;79.11
54172;BME280;40076;52.354;4.970;2022-09-21T07:42:34;102772.25;;;11.94;78.92
54172;BME280;40076;52.354;4.970;2022-09-21T07:44:59;102770.59;;;11.98;79.91
54172;BME280;40076;52.354;4.970;2022-09-21T07:47:24;102772.47;;;12.03;79.65
54172;BME280;40076;52.354;4.970;2022-09-21T07:49:49;102770.53;;;12.08;79.00
54172;BME280;40076;52.354;4.970;2022-09-21T07:52:15;102767.28;;;12.11;79.68
54172;BME280;40076;52.354;4.970;2022-09-21T07:54:40;102770.22;;;12.15;82.14
54172;BME280;40076;52.354;4.970;2022-09-21T07:57:05;102762.56;;;12.22;79.35
54172;BME280;40076;52.354;4.970;2022-09-21T07:59:52;102765.25;;;12.27;79.18
54172;BME280;40076;52.354;4.970;2022-09-21T08:02:27;102767.38;;;12.30;79.40
54172;BME280;40076;52.354;4.970;2022-09-21T08:04:52;102774.69;;;12.34;80.24
54172;BME280;40076;52.354;4.970;2022-09-21T08:07:18;102771.13;;;12.39;81.11
54172;BME280;40076;52.354;4.970;2022-09-21T08:09:43;102764.56;;;12.45;79.56
54172;BME280;40076;52.354;4.970;2022-09-21T08:12:09;102772.66;;;12.50;79.74
54172;BME280;40076;52.354;4.970;2022-09-21T08:14:35;102764.47;;;12.55;79.18
54172;BME280;40076;52.354;4.970;2022-09-21T08:17:00;102767.41;;;12.59;79.71
54172;BME280;40076;52.354;4.970;2022-09-21T08:19:26;102783.66;;;12.64;79.16
54172;BME280;40076;52.354;4.970;2022-09-21T08:21:52;102770.84;;;12.69;79.30
54172;BME280;40076;52.354;4.970;2022-09-21T08:24:17;102772.69;;;12.74;79.20
54172;BME280;40076;52.354;4.970;2022-09-21T08:26:42;102773.47;;;12.80;79.26
54172;BME280;40076;52.354;4.970;2022-09-21T08:29:10;102773.13;;;12.86;79.16
54172;BME280;40076;52.354;4.970;2022-09-21T08:31:37;102774.97;;;12.91;78.76
54172;BME280;40076;52.354;4.970;2022-09-21T08:34:02;102777.94;;;12.94;78.80
54172;BME280;40076;52.354;4.970;2022-09-21T08:36:27;102784.38;;;12.98;78.40
54172;BME280;40076;52.354;4.970;2022-09-21T08:38:53;102784.03;;;13.05;78.62
54172;BME280;40076;52.354;4.970;2022-09-21T08:44:00;102783.91;;;13.20;78.02
54172;BME280;40076;52.354;4.970;2022-09-21T08:46:27;102790.09;;;13.26;77.95
54172;BME280;40076;52.354;4.970;2022-09-21T08:48:58;102784.88;;;13.29;77.86
54172;BME280;40076;52.354;4.970;2022-09-21T08:51:27;102780.22;;;13.35;77.66
54172;BME280;40076;52.354;4.970;2022-09-21T08:54:02;102782.06;;;13.39;77.48
54172;BME280;40076;52.354;4.970;2022-09-21T08:56:31;102790.13;;;13.44;77.31
54172;BME280;40076;52.354;4.970;2022-09-21T08:58:56;102776.28;;;13.46;76.85
54172;BME280;40076;52.354;4.970;2022-09-21T09:01:30;102782.16;;;13.53;76.61
54172;BME280;40076;52.354;4.970;2022-09-21T09:16:45;102781.47;;;13.85;74.89
54172;BME280;40076;52.354;4.970;2022-09-21T09:21:44;102791.38;;;13.95;74.80
54172;BME280;40076;52.354;4.970;2022-09-21T09:24:11;102790.22;;;14.01;74.95
54172;BME280;40076;52.354;4.970;2022-09-21T09:26:41;102787.50;;;14.01;73.22
54172;BME280;40076;52.354;4.970;2022-09-21T09:29:28;102787.41;;;14.06;73.95
54172;BME280;40076;52.354;4.970;2022-09-21T09:31:56;102793.06;;;14.09;74.15
54172;BME280;40076;52.354;4.970;2022-09-21T09:34:34;102795.69;;;14.14;74.26
54172;BME280;40076;52.354;4.970;2022-09-21T09:37:04;102798.66;;;14.18;74.07
54172;BME280;40076;52.354;4.970;2022-09-21T09:39:34;102795.63;;;14.19;73.21
54172;BME280;40076;52.354;4.970;2022-09-21T09:47:11;102793.19;;;14.37;73.40
54172;BME280;40076;52.354;4.970;2022-09-21T09:52:24;102797.69;;;14.46;72.38
54172;BME280;40076;52.354;4.970;2022-09-21T09:54:50;102788.31;;;14.52;72.69
54172;BME280;40076;52.354;4.970;2022-09-21T09:57:25;102791.75;;;14.58;71.60
54172;BME280;40076;52.354;4.970;2022-09-21T09:59:52;102791.41;;;14.64;72.00
54172;BME280;40076;52.354;4.970;2022-09-21T10:02:20;102786.97;;;14.68;71.70
54172;BME280;40076;52.354;4.970;2022-09-21T10:04:55;102785.56;;;14.71;70.21
54172;BME280;40076;52.354;4.970;2022-09-21T10:07:45;102788.47;;;14.75;71.54
54172;BME280;40076;52.354;4.970;2022-09-21T10:15:41;102782.44;;;14.78;71.14
54172;BME280;40076;52.354;4.970;2022-09-21T10:20:38;102778.81;;;14.82;69.82
54172;BME280;40076;52.354;4.970;2022-09-21T10:23:15;102777.31;;;14.90;70.78
54172;BME280;40076;52.354;4.970;2022-09-21T10:25:40;102775.91;;;14.92;69.31
54172;BME280;40076;52.354;4.970;2022-09-21T10:28:06;102772.00;;;14.98;70.70
54172;BME280;40076;52.354;4.970;2022-09-21T10:30:33;102773.78;;;15.03;70.35
54172;BME280;40076;52.354;4.970;2022-09-21T10:32:58;102772.09;;;15.07;70.75
54172;BME280;40076;52.354;4.970;2022-09-21T10:35:24;102771.19;;;15.12;70.19
54172;BME280;40076;52.354;4.970;2022-09-21T10:38:07;102777.34;;;15.17;70.19
54172;BME280;40076;52.354;4.970;2022-09-21T10:40:34;102768.25;;;15.22;68.63
54172;BME280;40076;52.354;4.970;2022-09-21T10:43:00;102770.41;;;15.25;68.46
54172;BME280;40076;52.354;4.970;2022-09-21T10:45:32;102766.75;;;15.29;69.25
54172;BME280;40076;52.354;4.970;2022-09-21T10:48:15;102779.16;;;15.35;68.90
54172;BME280;40076;52.354;4.970;2022-09-21T10:50:45;102779.84;;;15.41;68.08
54172;BME280;40076;52.354;4.970;2022-09-21T10:53:27;102774.59;;;15.44;66.35
54172;BME280;40076;52.354;4.970;2022-09-21T10:55:56;102769.03;;;15.50;68.51
54172;BME280;40076;52.354;4.970;2022-09-21T10:58:22;102767.63;;;15.52;68.49
54172;BME280;40076;52.354;4.970;2022-09-21T11:00:48;102763.00;;;15.53;66.90
54172;BME280;40076;52.354;4.970;2022-09-21T11:05:50;102771.88;;;15.58;67.77
54172;BME280;40076;52.354;4.970;2022-09-21T11:08:18;102768.06;;;15.59;67.09
54172;BME280;40076;52.354;4.970;2022-09-21T11:10:47;102768.25;;;15.63;67.84
54172;BME280;40076;52.354;4.970;2022-09-21T11:13:16;102760.56;;;15.65;66.67
54172;BME280;40076;52.354;4.970;2022-09-21T11:15:48;102765.94;;;15.70;67.43
54172;BME280;40076;52.354;4.970;2022-09-21T11:18:25;102758.84;;;15.69;64.26
54172;BME280;40076;52.354;4.970;2022-09-21T11:20:58;102762.28;;;15.74;66.86
54172;BME280;40076;52.354;4.970;2022-09-21T11:26:14;102758.13;;;15.77;66.88
54172;BME280;40076;52.354;4.970;2022-09-21T11:29:01;102759.25;;;15.76;66.51
54172;BME280;40076;52.354;4.970;2022-09-21T11:37:01;102748.63;;;15.74;66.91
54172;BME280;40076;52.354;4.970;2022-09-21T11:39:48;102751.38;;;15.74;66.80
54172;BME280;40076;52.354;4.970;2022-09-21T11:42:24;102748.63;;;15.74;67.00
54172;BME280;40076;52.354;4.970;2022-09-21T11:44:59;102744.28;;;15.73;66.96
54172;BME280;40076;52.354;4.970;2022-09-21T11:47:34;102733.69;;;15.72;67.16
54172;BME280;40076;52.354;4.970;2022-09-21T11:52:37;102741.09;;;15.71;66.76
54172;BME280;40076;52.354;4.970;2022-09-21T11:57:50;102733.91;;;15.75;66.11
54172;BME280;40076;52.354;4.970;2022-09-21T12:00:18;102736.31;;;15.77;63.44
54172;BME280;40076;52.354;4.970;2022-09-21T12:05:23;102739.81;;;15.91;65.86
54172;BME280;40076;52.354;4.970;2022-09-21T12:10:37;102734.88;;;15.93;65.20
54172;BME280;40076;52.354;4.970;2022-09-21T12:13:22;102729.22;;;15.90;60.23
54172;BME280;40076;52.354;4.970;2022-09-21T12:16:01;102728.31;;;15.94;64.42
54172;BME280;40076;52.354;4.970;2022-09-21T12:23:29;102724.94;;;15.97;63.46
54172;BME280;40076;52.354;4.970;2022-09-21T12:25:56;102722.41;;;16.01;63.91
54172;BME280;40076;52.354;4.970;2022-09-21T12:30:50;102720.22;;;16.11;63.63
54172;BME280;40076;52.354;4.970;2022-09-21T12:35:48;102722.03;;;16.16;60.75
54172;BME280;40076;52.354;4.970;2022-09-21T12:38:32;102724.63;;;16.21;62.34
54172;BME280;40076;52.354;4.970;2022-09-21T12:45:52;102719.41;;;16.33;62.96
54172;BME280;40076;52.354;4.970;2022-09-21T12:50:51;102710.00;;;16.39;60.49
54172;BME280;40076;52.354;4.970;2022-09-21T12:53:24;102709.03;;;16.44;60.55
54172;BME280;40076;52.354;4.970;2022-09-21T12:55:55;102710.34;;;16.46;61.20
54172;BME280;40076;52.354;4.970;2022-09-21T13:03:41;102704.94;;;16.55;59.94
54172;BME280;40076;52.354;4.970;2022-09-21T13:08:37;102698.72;;;16.63;60.13
54172;BME280;40076;52.354;4.970;2022-09-21T13:11:05;102696.78;;;16.64;60.17
54172;BME280;40076;52.354;4.970;2022-09-21T13:13:38;102700.66;;;16.63;59.32
54172;BME280;40076;52.354;4.970;2022-09-21T13:16:53;102699.88;;;16.62;60.32
54172;BME280;40076;52.354;4.970;2022-09-21T13:18:54;102700.16;;;16.61;60.41
54172;BME280;40076;52.354;4.970;2022-09-21T13:21:22;102696.59;;;16.60;60.78
54172;BME280;40076;52.354;4.970;2022-09-21T13:23:51;102691.44;;;16.58;60.71
54172;BME280;40076;52.354;4.970;2022-09-21T13:26:26;102692.88;;;16.56;60.95
54172;BME280;40076;52.354;4.970;2022-09-21T13:36:38;102684.84;;;16.51;60.71
54172;BME280;40076;52.354;4.970;2022-09-21T13:41:32;102685.44;;;16.48;59.73
54172;BME280;40076;52.354;4.970;2022-09-21T13:51:54;102679.69;;;16.49;60.30
54172;BME280;40076;52.354;4.970;2022-09-21T13:54:25;102681.50;;;16.54;60.05
54172;BME280;40076;52.354;4.970;2022-09-21T13:56:56;102679.22;;;16.56;58.43
54172;BME280;40076;52.354;4.970;2022-09-21T13:59:23;102674.50;;;16.62;59.98
54172;BME280;40076;52.354;4.970;2022-09-21T14:01:48;102680.91;;;16.66;59.23
54172;BME280;40076;52.354;4.970;2022-09-21T14:04:24;102675.66;;;16.69;58.93
54172;BME280;40076;52.354;4.970;2022-09-21T14:06:51;102672.75;;;16.74;59.00
54172;BME280;40076;52.354;4.970;2022-09-21T14:09:29;102672.16;;;16.77;59.22
54172;BME280;40076;52.354;4.970;2022-09-21T14:11:57;102669.56;;;16.81;59.45
54172;BME280;40076;52.354;4.970;2022-09-21T14:16:52;102662.84;;;16.87;58.37
54172;BME280;40076;52.354;4.970;2022-09-21T14:24:47;102659.19;;;16.91;56.66
54172;BME280;40076;52.354;4.970;2022-09-21T14:27:24;102655.00;;;16.94;57.74
54172;BME280;40076;52.354;4.970;2022-09-21T14:29:52;102655.00;;;16.94;56.54
54172;BME280;40076;52.354;4.970;2022-09-21T14:32:20;102654.38;;;16.97;57.81
54172;BME280;40076;52.354;4.970;2022-09-21T14:34:47;102651.81;;;17.01;58.10
54172;BME280;40076;52.354;4.970;2022-09-21T14:37:24;102653.09;;;17.03;57.73
54172;BME280;40076;52.354;4.970;2022-09-21T14:39:51;102645.38;;;17.05;57.09
54172;BME280;40076;52.354;4.970;2022-09-21T14:42:17;102642.84;;;17.09;56.59
54172;BME280;40076;52.354;4.970;2022-09-21T14:44:44;102639.44;;;17.12;56.78
54172;BME280;40076;52.354;4.970;2022-09-21T14:52:24;102630.16;;;17.21;55.37
54172;BME280;40076;52.354;4.970;2022-09-21T14:55:04;102638.03;;;17.23;55.85
54172;BME280;40076;52.354;4.970;2022-09-21T15:00:24;102628.38;;;17.25;56.53
54172;BME280;40076;52.354;4.970;2022-09-21T15:03:24;102620.16;;;17.25;56.37
54172;BME280;40076;52.354;4.970;2022-09-21T15:05:56;102621.16;;;17.21;54.85
54172;BME280;40076;52.354;4.970;2022-09-21T15:08:47;102623.06;;;17.20;56.42
54172;BME280;40076;52.354;4.970;2022-09-21T15:11:37;102623.06;;;17.20;56.64
54172;BME280;40076;52.354;4.970;2022-09-21T15:16:48;102619.84;;;17.18;56.52
54172;BME280;40076;52.354;4.970;2022-09-21T15:19:21;102622.59;;;17.18;56.50
54172;BME280;40076;52.354;4.970;2022-09-21T15:21:48;102608.13;;;17.18;56.72
54172;BME280;40076;52.354;4.970;2022-09-21T15:24:19;102616.66;;;17.16;56.90
54172;BME280;40076;52.354;4.970;2022-09-21T15:26:45;102611.19;;;17.16;57.07
54172;BME280;40076;52.354;4.970;2022-09-21T15:29:19;102618.59;;;17.16;56.93
54172;BME280;40076;52.354;4.970;2022-09-21T15:31:48;102616.47;;;17.13;55.21
54172;BME280;40076;52.354;4.970;2022-09-21T15:34:14;102611.31;;;17.11;56.30
54172;BME280;40076;52.354;4.970;2022-09-21T15:36:39;102607.78;;;17.11;56.98
54172;BME280;40076;52.354;4.970;2022-09-21T15:39:16;102604.25;;;17.10;57.13